sensor_id;sensor_type;location;lat;lon;timestamp;P1;durP1;ratioP1;P2;durP2;ratioP2
4023;SDS011;2026;51.002;13.668;2023-09-18T00:02:19;7.47;;;6.77;;
4023;SDS011;2026;51.002;13.668;2023-09-18T00:07:22;8.70;;;6.47;;
4023;SDS011;2026;51.002;13.668;2023-09-18T00:12:25;7.63;;;6.67;;
4023;SDS011;2026;51.002;13.668;2023-09-18T00:17:29;7.63;;;6.83;;
4023;SDS011;2026;51.002;13.668;2023-09-18T00:22:32;7.40;;;6.33;;
4023;SDS011;2026;51.002;13.668;2023-09-18T00:27:34;11.53;;;6.50;;
4023;SDS011;2026;51.002;13.668;2023-09-18T00:32:39;15.43;;;12.00;;
4023;SDS011;2026;51.002;13.668;2023-09-18T00:37:42;18.53;;;9.00;;
4023;SDS011;2026;51.002;13.668;2023-09-18T00:42:45;8.27;;;7.43;;
4023;SDS011;2026;51.002;13.668;2023-09-18T00:47:49;8.00;;;7.20;;
4023;SDS011;2026;51.002;13.668;2023-09-18T00:52:52;7.83;;;6.90;;
4023;SDS011;2026;51.002;13.668;2023-09-18T00:57:56;11.33;;;7.30;;
4023;SDS011;2026;51.002;13.668;2023-09-18T01:03:00;7.60;;;6.80;;
4023;SDS011;2026;51.002;13.668;2023-09-18T01:08:05;7.67;;;6.87;;
4023;SDS011;2026;51.002;13.668;2023-09-18T01:13:10;7.80;;;7.00;;
4023;SDS011;2026;51.002;13.668;2023-09-18T01:18:16;8.40;;;7.60;;
4023;SDS011;2026;51.002;13.668;2023-09-18T01:23:21;8.63;;;7.57;;
4023;SDS011;2026;51.002;13.668;2023-09-18T01:28:23;8.07;;;7.27;;
4023;SDS011;2026;51.002;13.668;2023-09-18T01:33:26;8.73;;;6.90;;
4023;SDS011;2026;51.002;13.668;2023-09-18T01:38:31;9.20;;;6.80;;
4023;SDS011;2026;51.002;13.668;2023-09-18T01:43:34;8.40;;;7.27;;
4023;SDS011;2026;51.002;13.668;2023-09-18T01:48:37;7.67;;;6.77;;
4023;SDS011;2026;51.002;13.668;2023-09-18T01:53:41;11.63;;;9.07;;
4023;SDS011;2026;51.002;13.668;2023-09-18T01:58:45;10.93;;;8.50;;
4023;SDS011;2026;51.002;13.668;2023-09-18T02:03:48;9.57;;;8.03;;
4023;SDS011;2026;51.002;13.668;2023-09-18T02:09:11;9.50;;;8.50;;
4023;SDS011;2026;51.002;13.668;2023-09-18T02:14:14;10.50;;;8.00;;
4023;SDS011;2026;51.002;13.668;2023-09-18T02:19:17;9.40;;;8.00;;
4023;SDS011;2026;51.002;13.668;2023-09-18T02:24:23;9.50;;;8.20;;
4023;SDS011;2026;51.002;13.668;2023-09-18T02:29:26;10.10;;;8.13;;
4023;SDS011;2026;51.002;13.668;2023-09-18T02:34:29;9.23;;;8.33;;
4023;SDS011;2026;51.002;13.668;2023-09-18T02:39:33;14.93;;;9.40;;
4023;SDS011;2026;51.002;13.668;2023-09-18T02:44:36;10.60;;;9.27;;
4023;SDS011;2026;51.002;13.668;2023-09-18T02:49:40;12.30;;;8.57;;
4023;SDS011;2026;51.002;13.668;2023-09-18T02:54:45;11.87;;;9.00;;
4023;SDS011;2026;51.002;13.668;2023-09-18T02:59:48;8.90;;;8.00;;
4023;SDS011;2026;51.002;13.668;2023-09-18T03:04:50;13.47;;;8.63;;
4023;SDS011;2026;51.002;13.668;2023-09-18T03:09:54;13.00;;;8.70;;
4023;SDS011;2026;51.002;13.668;2023-09-18T03:14:57;12.60;;;9.80;;
4023;SDS011;2026;51.002;13.668;2023-09-18T03:20:00;12.20;;;9.40;;
4023;SDS011;2026;51.002;13.668;2023-09-18T03:25:05;10.73;;;8.40;;
4023;SDS011;2026;51.002;13.668;2023-09-18T03:30:08;12.90;;;8.10;;
4023;SDS011;2026;51.002;13.668;2023-09-18T03:35:14;10.10;;;8.40;;
4023;SDS011;2026;51.002;13.668;2023-09-18T03:40:22;9.90;;;8.73;;
4023;SDS011;2026;51.002;13.668;2023-09-18T03:45:25;13.70;;;9.00;;
4023;SDS011;2026;51.002;13.668;2023-09-18T03:50:28;11.03;;;8.87;;
4023;SDS011;2026;51.002;13.668;2023-09-18T03:55:33;10.53;;;8.60;;
4023;SDS011;2026;51.002;13.668;2023-09-18T04:00:36;10.80;;;8.63;;
4023;SDS011;2026;51.002;13.668;2023-09-18T04:05:39;11.70;;;8.03;;
4023;SDS011;2026;51.002;13.668;2023-09-18T04:10:43;11.90;;;8.77;;
4023;SDS011;2026;51.002;13.668;2023-09-18T04:15:46;9.90;;;8.50;;
4023;SDS011;2026;51.002;13.668;2023-09-18T04:20:49;14.53;;;9.33;;
4023;SDS011;2026;51.002;13.668;2023-09-18T04:25:57;11.70;;;9.17;;
4023;SDS011;2026;51.002;13.668;2023-09-18T04:31:01;10.83;;;8.73;;
4023;SDS011;2026;51.002;13.668;2023-09-18T04:36:04;13.40;;;9.87;;
4023;SDS011;2026;51.002;13.668;2023-09-18T04:41:08;9.43;;;8.30;;
4023;SDS011;2026;51.002;13.668;2023-09-18T04:46:12;10.57;;;8.50;;
4023;SDS011;2026;51.002;13.668;2023-09-18T04:51:15;10.00;;;7.90;;
4023;SDS011;2026;51.002;13.668;2023-09-18T04:56:20;10.07;;;8.80;;
4023;SDS011;2026;51.002;13.668;2023-09-18T05:01:23;10.73;;;8.70;;
4023;SDS011;2026;51.002;13.668;2023-09-18T05:06:26;15.30;;;9.60;;
4023;SDS011;2026;51.002;13.668;2023-09-18T05:11:31;9.30;;;8.23;;
4023;SDS011;2026;51.002;13.668;2023-09-18T05:16:34;10.37;;;8.63;;
4023;SDS011;2026;51.002;13.668;2023-09-18T05:21:37;13.03;;;8.00;;
4023;SDS011;2026;51.002;13.668;2023-09-18T05:26:41;10.40;;;8.53;;
4023;SDS011;2026;51.002;13.668;2023-09-18T05:31:44;12.67;;;8.60;;
4023;SDS011;2026;51.002;13.668;2023-09-18T05:36:47;10.10;;;8.30;;
4023;SDS011;2026;51.002;13.668;2023-09-18T05:41:51;9.80;;;7.03;;
4023;SDS011;2026;51.002;13.668;2023-09-18T05:46:54;7.80;;;7.00;;
4023;SDS011;2026;51.002;13.668;2023-09-18T05:51:57;7.40;;;6.60;;
4023;SDS011;2026;51.002;13.668;2023-09-18T05:57:01;7.57;;;6.53;;
4023;SDS011;2026;51.002;13.668;2023-09-18T06:02:04;7.40;;;6.70;;
4023;SDS011;2026;51.002;13.668;2023-09-18T06:07:07;7.37;;;6.57;;
4023;SDS011;2026;51.002;13.668;2023-09-18T06:12:11;6.70;;;6.10;;
4023;SDS011;2026;51.002;13.668;2023-09-18T06:17:14;9.43;;;6.80;;
4023;SDS011;2026;51.002;13.668;2023-09-18T06:22:17;7.57;;;6.77;;
4023;SDS011;2026;51.002;13.668;2023-09-18T06:27:21;7.60;;;6.80;;
4023;SDS011;2026;51.002;13.668;2023-09-18T06:32:24;8.17;;;7.37;;
4023;SDS011;2026;51.002;13.668;2023-09-18T06:37:27;7.83;;;6.73;;
4023;SDS011;2026;51.002;13.668;2023-09-18T06:42:31;7.33;;;6.37;;
4023;SDS011;2026;51.002;13.668;2023-09-18T06:47:35;7.90;;;6.73;;
4023;SDS011;2026;51.002;13.668;2023-09-18T06:52:38;8.20;;;7.10;;
4023;SDS011;2026;51.002;13.668;2023-09-18T06:57:42;11.33;;;6.97;;
4023;SDS011;2026;51.002;13.668;2023-09-18T07:02:44;7.23;;;6.53;;
4023;SDS011;2026;51.002;13.668;2023-09-18T07:07:47;8.23;;;7.07;;
4023;SDS011;2026;51.002;13.668;2023-09-18T07:12:51;7.70;;;7.00;;
4023;SDS011;2026;51.002;13.668;2023-09-18T07:17:54;6.83;;;6.00;;
4023;SDS011;2026;51.002;13.668;2023-09-18T07:22:57;8.03;;;6.03;;
4023;SDS011;2026;51.002;13.668;2023-09-18T07:28:01;7.23;;;6.63;;
4023;SDS011;2026;51.002;13.668;2023-09-18T07:33:04;7.10;;;6.43;;
4023;SDS011;2026;51.002;13.668;2023-09-18T07:38:07;7.13;;;6.23;;
4023;SDS011;2026;51.002;13.668;2023-09-18T07:43:11;6.50;;;5.90;;
4023;SDS011;2026;51.002;13.668;2023-09-18T07:48:14;7.03;;;6.30;;
4023;SDS011;2026;51.002;13.668;2023-09-18T07:53:21;7.40;;;6.53;;
4023;SDS011;2026;51.002;13.668;2023-09-18T07:58:25;7.03;;;6.30;;
4023;SDS011;2026;51.002;13.668;2023-09-18T08:03:29;6.87;;;6.27;;
4023;SDS011;2026;51.002;13.668;2023-09-18T08:08:32;6.60;;;5.70;;
4023;SDS011;2026;51.002;13.668;2023-09-18T08:13:36;9.00;;;6.17;;
4023;SDS011;2026;51.002;13.668;2023-09-18T08:18:39;8.33;;;5.83;;
4023;SDS011;2026;51.002;13.668;2023-09-18T08:23:43;6.57;;;5.88;;
4023;SDS011;2026;51.002;13.668;2023-09-18T08:28:47;10.52;;;6.45;;
4023;SDS011;2026;51.002;13.668;2023-09-18T08:33:51;6.57;;;5.97;;
4023;SDS011;2026;51.002;13.668;2023-09-18T08:38:53;5.90;;;5.35;;
4023;SDS011;2026;51.002;13.668;2023-09-18T08:43:59;6.20;;;5.05;;
4023;SDS011;2026;51.002;13.668;2023-09-18T08:49:02;5.75;;;5.18;;
4023;SDS011;2026;51.002;13.668;2023-09-18T08:54:06;5.93;;;5.43;;
4023;SDS011;2026;51.002;13.668;2023-09-18T08:59:11;5.70;;;5.20;;
4023;SDS011;2026;51.002;13.668;2023-09-18T09:04:15;5.85;;;4.88;;
4023;SDS011;2026;51.002;13.668;2023-09-18T09:09:17;8.15;;;5.35;;
4023;SDS011;2026;51.002;13.668;2023-09-18T09:14:22;7.18;;;5.72;;
4023;SDS011;2026;51.002;13.668;2023-09-18T09:19:30;8.70;;;6.00;;
4023;SDS011;2026;51.002;13.668;2023-09-18T09:24:36;6.05;;;5.45;;
4023;SDS011;2026;51.002;13.668;2023-09-18T09:29:41;6.93;;;5.60;;
4023;SDS011;2026;51.002;13.668;2023-09-18T09:34:44;6.07;;;5.57;;
4023;SDS011;2026;51.002;13.668;2023-09-18T09:39:51;6.22;;;5.20;;
4023;SDS011;2026;51.002;13.668;2023-09-18T09:45:01;9.07;;;5.43;;
4023;SDS011;2026;51.002;13.668;2023-09-18T09:50:06;5.20;;;4.68;;
4023;SDS011;2026;51.002;13.668;2023-09-18T09:55:17;6.03;;;4.82;;
4023;SDS011;2026;51.002;13.668;2023-09-18T10:00:22;5.57;;;4.88;;
4023;SDS011;2026;51.002;13.668;2023-09-18T10:05:29;6.68;;;5.13;;
4023;SDS011;2026;51.002;13.668;2023-09-18T10:10:34;7.55;;;4.57;;
4023;SDS011;2026;51.002;13.668;2023-09-18T10:15:39;6.68;;;4.97;;
4023;SDS011;2026;51.002;13.668;2023-09-18T10:20:45;5.18;;;4.78;;
4023;SDS011;2026;51.002;13.668;2023-09-18T10:25:50;5.18;;;4.55;;
4023;SDS011;2026;51.002;13.668;2023-09-18T10:30:58;5.25;;;4.75;;
4023;SDS011;2026;51.002;13.668;2023-09-18T10:36:01;6.45;;;3.97;;
4023;SDS011;2026;51.002;13.668;2023-09-18T10:41:05;7.82;;;7.13;;
4023;SDS011;2026;51.002;13.668;2023-09-18T10:46:11;5.63;;;4.15;;
4023;SDS011;2026;51.002;13.668;2023-09-18T10:51:15;4.95;;;4.03;;
4023;SDS011;2026;51.002;13.668;2023-09-18T10:56:21;6.03;;;4.68;;
4023;SDS011;2026;51.002;13.668;2023-09-18T11:01:26;4.72;;;4.07;;
4023;SDS011;2026;51.002;13.668;2023-09-18T11:06:30;4.75;;;4.15;;
4023;SDS011;2026;51.002;13.668;2023-09-18T11:11:32;5.10;;;4.70;;
4023;SDS011;2026;51.002;13.668;2023-09-18T11:16:38;5.22;;;4.78;;
4023;SDS011;2026;51.002;13.668;2023-09-18T11:21:42;5.13;;;4.60;;
4023;SDS011;2026;51.002;13.668;2023-09-18T11:26:46;8.25;;;5.20;;
4023;SDS011;2026;51.002;13.668;2023-09-18T11:31:52;9.98;;;4.65;;
4023;SDS011;2026;51.002;13.668;2023-09-18T11:36:55;7.07;;;5.00;;
4023;SDS011;2026;51.002;13.668;2023-09-18T11:42:06;5.85;;;5.25;;
4023;SDS011;2026;51.002;13.668;2023-09-18T11:47:11;5.70;;;5.20;;
4023;SDS011;2026;51.002;13.668;2023-09-18T11:52:21;7.07;;;4.90;;
4023;SDS011;2026;51.002;13.668;2023-09-18T11:57:24;6.93;;;4.30;;
4023;SDS011;2026;51.002;13.668;2023-09-18T12:02:30;4.85;;;4.40;;
4023;SDS011;2026;51.002;13.668;2023-09-18T12:07:37;5.05;;;4.60;;
4023;SDS011;2026;51.002;13.668;2023-09-18T12:12:41;7.22;;;4.97;;
4023;SDS011;2026;51.002;13.668;2023-09-18T12:17:45;5.25;;;4.57;;
4023;SDS011;2026;51.002;13.668;2023-09-18T12:22:49;6.05;;;4.50;;
4023;SDS011;2026;51.002;13.668;2023-09-18T12:27:53;5.75;;;4.85;;
4023;SDS011;2026;51.002;13.668;2023-09-18T12:32:57;5.45;;;4.78;;
4023;SDS011;2026;51.002;13.668;2023-09-18T12:38:01;5.10;;;4.60;;
4023;SDS011;2026;51.002;13.668;2023-09-18T12:43:06;6.00;;;4.70;;
4023;SDS011;2026;51.002;13.668;2023-09-18T12:48:11;6.65;;;4.60;;
4023;SDS011;2026;51.002;13.668;2023-09-18T12:53:14;5.57;;;4.90;;
4023;SDS011;2026;51.002;13.668;2023-09-18T12:58:18;5.10;;;4.35;;
4023;SDS011;2026;51.002;13.668;2023-09-18T13:03:22;6.32;;;5.15;;
4023;SDS011;2026;51.002;13.668;2023-09-18T13:08:25;6.03;;;5.07;;
4023;SDS011;2026;51.002;13.668;2023-09-18T13:13:28;5.60;;;4.63;;
4023;SDS011;2026;51.002;13.668;2023-09-18T13:18:33;10.63;;;5.28;;
4023;SDS011;2026;51.002;13.668;2023-09-18T13:23:36;10.57;;;4.78;;
4023;SDS011;2026;51.002;13.668;2023-09-18T13:28:39;5.50;;;4.70;;
4023;SDS011;2026;51.002;13.668;2023-09-18T13:33:45;8.80;;;5.55;;
4023;SDS011;2026;51.002;13.668;2023-09-18T13:38:53;5.20;;;4.63;;
4023;SDS011;2026;51.002;13.668;2023-09-18T13:43:56;6.75;;;4.63;;
4023;SDS011;2026;51.002;13.668;2023-09-18T13:49:00;6.30;;;5.13;;
4023;SDS011;2026;51.002;13.668;2023-09-18T13:54:03;6.35;;;4.88;;
4023;SDS011;2026;51.002;13.668;2023-09-18T13:59:09;8.82;;;5.05;;
4023;SDS011;2026;51.002;13.668;2023-09-18T14:04:14;6.10;;;5.50;;
4023;SDS011;2026;51.002;13.668;2023-09-18T14:09:17;10.15;;;4.43;;
4023;SDS011;2026;51.002;13.668;2023-09-18T14:14:21;7.75;;;3.78;;
4023;SDS011;2026;51.002;13.668;2023-09-18T14:19:25;9.55;;;3.30;;
4023;SDS011;2026;51.002;13.668;2023-09-18T14:24:28;8.25;;;3.58;;
4023;SDS011;2026;51.002;13.668;2023-09-18T14:29:31;6.72;;;3.67;;
4023;SDS011;2026;51.002;13.668;2023-09-18T14:34:36;13.02;;;3.13;;
4023;SDS011;2026;51.002;13.668;2023-09-18T14:39:39;11.18;;;3.92;;
4023;SDS011;2026;51.002;13.668;2023-09-18T14:44:41;6.95;;;2.95;;
4023;SDS011;2026;51.002;13.668;2023-09-18T14:49:47;6.05;;;2.97;;
4023;SDS011;2026;51.002;13.668;2023-09-18T14:54:50;9.82;;;4.20;;
4023;SDS011;2026;51.002;13.668;2023-09-18T14:59:53;4.95;;;3.88;;
4023;SDS011;2026;51.002;13.668;2023-09-18T15:04:57;9.60;;;4.25;;
4023;SDS011;2026;51.002;13.668;2023-09-18T15:10:01;8.57;;;3.60;;
4023;SDS011;2026;51.002;13.668;2023-09-18T15:15:06;6.43;;;2.90;;
4023;SDS011;2026;51.002;13.668;2023-09-18T15:20:11;11.90;;;3.28;;
4023;SDS011;2026;51.002;13.668;2023-09-18T15:25:14;7.15;;;2.35;;
4023;SDS011;2026;51.002;13.668;2023-09-18T15:30:17;7.80;;;2.65;;
4023;SDS011;2026;51.002;13.668;2023-09-18T15:35:21;16.20;;;2.45;;
4023;SDS011;2026;51.002;13.668;2023-09-18T15:40:25;2.67;;;2.03;;
4023;SDS011;2026;51.002;13.668;2023-09-18T15:45:28;5.72;;;1.83;;
4023;SDS011;2026;51.002;13.668;2023-09-18T15:50:32;6.07;;;1.83;;
4023;SDS011;2026;51.002;13.668;2023-09-18T15:55:39;4.80;;;1.90;;
4023;SDS011;2026;51.002;13.668;2023-09-18T16:00:42;2.47;;;1.70;;
4023;SDS011;2026;51.002;13.668;2023-09-18T16:05:46;3.95;;;2.00;;
4023;SDS011;2026;51.002;13.668;2023-09-18T16:10:53;3.97;;;1.60;;
4023;SDS011;2026;51.002;13.668;2023-09-18T16:15:56;6.80;;;1.88;;
4023;SDS011;2026;51.002;13.668;2023-09-18T16:21:01;5.00;;;2.20;;
4023;SDS011;2026;51.002;13.668;2023-09-18T16:26:04;5.37;;;2.13;;
4023;SDS011;2026;51.002;13.668;2023-09-18T16:31:07;4.45;;;2.42;;
4023;SDS011;2026;51.002;13.668;2023-09-18T16:36:11;6.53;;;2.10;;
4023;SDS011;2026;51.002;13.668;2023-09-18T16:41:14;2.83;;;1.83;;
4023;SDS011;2026;51.002;13.668;2023-09-18T16:46:17;4.80;;;2.40;;
4023;SDS011;2026;51.002;13.668;2023-09-18T16:51:21;5.00;;;1.90;;
4023;SDS011;2026;51.002;13.668;2023-09-18T16:56:24;7.33;;;2.33;;
4023;SDS011;2026;51.002;13.668;2023-09-18T17:01:27;3.53;;;2.43;;
4023;SDS011;2026;51.002;13.668;2023-09-18T17:06:31;4.53;;;2.10;;
4023;SDS011;2026;51.002;13.668;2023-09-18T17:11:36;7.88;;;2.40;;
4023;SDS011;2026;51.002;13.668;2023-09-18T17:16:39;6.73;;;2.90;;
4023;SDS011;2026;51.002;13.668;2023-09-18T17:21:43;3.87;;;2.23;;
4023;SDS011;2026;51.002;13.668;2023-09-18T17:26:46;5.37;;;2.53;;
4023;SDS011;2026;51.002;13.668;2023-09-18T17:31:49;4.63;;;2.83;;
4023;SDS011;2026;51.002;13.668;2023-09-18T17:36:53;3.37;;;2.53;;
4023;SDS011;2026;51.002;13.668;2023-09-18T17:41:57;3.17;;;2.60;;
4023;SDS011;2026;51.002;13.668;2023-09-18T17:47:00;7.90;;;2.50;;
4023;SDS011;2026;51.002;13.668;2023-09-18T17:52:05;9.37;;;3.20;;
4023;SDS011;2026;51.002;13.668;2023-09-18T17:57:10;6.03;;;2.83;;
4023;SDS011;2026;51.002;13.668;2023-09-18T18:02:13;5.23;;;2.73;;
4023;SDS011;2026;51.002;13.668;2023-09-18T18:07:18;8.13;;;3.20;;
4023;SDS011;2026;51.002;13.668;2023-09-18T18:12:20;5.40;;;2.50;;
4023;SDS011;2026;51.002;13.668;2023-09-18T18:17:23;7.13;;;2.73;;
4023;SDS011;2026;51.002;13.668;2023-09-18T18:22:27;4.33;;;2.10;;
4023;SDS011;2026;51.002;13.668;2023-09-18T18:27:30;5.00;;;2.00;;
4023;SDS011;2026;51.002;13.668;2023-09-18T18:32:35;2.90;;;2.03;;
4023;SDS011;2026;51.002;13.668;2023-09-18T18:37:39;2.90;;;1.70;;
4023;SDS011;2026;51.002;13.668;2023-09-18T18:42:42;4.33;;;1.90;;
4023;SDS011;2026;51.002;13.668;2023-09-18T18:47:47;4.30;;;1.80;;
4023;SDS011;2026;51.002;13.668;2023-09-18T18:52:53;2.50;;;1.80;;
4023;SDS011;2026;51.002;13.668;2023-09-18T18:57:56;4.27;;;2.03;;
4023;SDS011;2026;51.002;13.668;2023-09-18T19:02:58;4.57;;;2.00;;
4023;SDS011;2026;51.002;13.668;2023-09-18T19:08:07;1.77;;;1.60;;
4023;SDS011;2026;51.002;13.668;2023-09-18T19:13:09;1.93;;;1.63;;
4023;SDS011;2026;51.002;13.668;2023-09-18T19:18:14;3.43;;;1.80;;
4023;SDS011;2026;51.002;13.668;2023-09-18T19:23:18;4.77;;;2.33;;
4023;SDS011;2026;51.002;13.668;2023-09-18T19:28:21;3.67;;;1.87;;
4023;SDS011;2026;51.002;13.668;2023-09-18T19:33:25;6.27;;;1.90;;
4023;SDS011;2026;51.002;13.668;2023-09-18T19:38:30;3.67;;;1.60;;
4023;SDS011;2026;51.002;13.668;2023-09-18T19:43:33;2.20;;;1.83;;
4023;SDS011;2026;51.002;13.668;2023-09-18T19:48:36;3.50;;;1.60;;
4023;SDS011;2026;51.002;13.668;2023-09-18T19:53:41;2.30;;;1.50;;
4023;SDS011;2026;51.002;13.668;2023-09-18T19:58:44;6.33;;;1.40;;
4023;SDS011;2026;51.002;13.668;2023-09-18T20:03:47;3.33;;;1.50;;
4023;SDS011;2026;51.002;13.668;2023-09-18T20:08:51;2.83;;;1.50;;
4023;SDS011;2026;51.002;13.668;2023-09-18T20:13:56;2.57;;;1.60;;
4023;SDS011;2026;51.002;13.668;2023-09-18T20:18:59;5.07;;;1.47;;
4023;SDS011;2026;51.002;13.668;2023-09-18T20:24:05;2.63;;;1.20;;
4023;SDS011;2026;51.002;13.668;2023-09-18T20:29:07;2.00;;;1.40;;
4023;SDS011;2026;51.002;13.668;2023-09-18T20:34:10;3.27;;;1.40;;
4023;SDS011;2026;51.002;13.668;2023-09-18T20:39:15;1.30;;;1.10;;
4023;SDS011;2026;51.002;13.668;2023-09-18T20:44:18;2.57;;;1.40;;
4023;SDS011;2026;51.002;13.668;2023-09-18T20:49:23;4.03;;;1.70;;
4023;SDS011;2026;51.002;13.668;2023-09-18T20:54:28;2.30;;;1.70;;
4023;SDS011;2026;51.002;13.668;2023-09-18T20:59:30;1.40;;;1.13;;
4023;SDS011;2026;51.002;13.668;2023-09-18T21:04:34;2.90;;;1.50;;
4023;SDS011;2026;51.002;13.668;2023-09-18T21:09:39;2.00;;;1.30;;
4023;SDS011;2026;51.002;13.668;2023-09-18T21:14:42;2.03;;;1.23;;
4023;SDS011;2026;51.002;13.668;2023-09-18T21:19:45;3.37;;;1.50;;
4023;SDS011;2026;51.002;13.668;2023-09-18T21:24:49;1.70;;;1.10;;
4023;SDS011;2026;51.002;13.668;2023-09-18T21:29:52;3.03;;;1.37;;
4023;SDS011;2026;51.002;13.668;2023-09-18T21:34:55;1.50;;;1.30;;
4023;SDS011;2026;51.002;13.668;2023-09-18T21:39:59;2.77;;;1.50;;
4023;SDS011;2026;51.002;13.668;2023-09-18T21:45:03;1.30;;;1.20;;
4023;SDS011;2026;51.002;13.668;2023-09-18T21:50:07;2.27;;;1.30;;
4023;SDS011;2026;51.002;13.668;2023-09-18T21:55:11;1.90;;;1.40;;
4023;SDS011;2026;51.002;13.668;2023-09-18T22:00:14;3.33;;;1.20;;
4023;SDS011;2026;51.002;13.668;2023-09-18T22:05:19;3.90;;;1.60;;
4023;SDS011;2026;51.002;13.668;2023-09-18T22:10:23;3.60;;;1.50;;
4023;SDS011;2026;51.002;13.668;2023-09-18T22:15:28;4.53;;;1.43;;
4023;SDS011;2026;51.002;13.668;2023-09-18T22:20:30;1.83;;;1.20;;
4023;SDS011;2026;51.002;13.668;2023-09-18T22:25:35;3.40;;;1.30;;
4023;SDS011;2026;51.002;13.668;2023-09-18T22:30:39;2.70;;;1.30;;
4023;SDS011;2026;51.002;13.668;2023-09-18T22:35:42;2.13;;;1.30;;
4023;SDS011;2026;51.002;13.668;2023-09-18T22:56:34;3.23;;;1.30;;
4023;SDS011;2026;51.002;13.668;2023-09-18T23:01:37;2.87;;;1.53;;
4023;SDS011;2026;51.002;13.668;2023-09-18T23:06:40;2.77;;;1.30;;
4023;SDS011;2026;51.002;13.668;2023-09-18T23:11:45;5.50;;;1.53;;
4023;SDS011;2026;51.002;13.668;2023-09-18T23:16:48;1.97;;;1.40;;
4023;SDS011;2026;51.002;13.668;2023-09-18T23:21:51;1.97;;;1.77;;
4023;SDS011;2026;51.002;13.668;2023-09-18T23:26:55;2.17;;;1.40;;
4023;SDS011;2026;51.002;13.668;2023-09-18T23:31:58;2.17;;;1.63;;
4023;SDS011;2026;51.002;13.668;2023-09-18T23:37:01;1.43;;;1.30;;
4023;SDS011;2026;51.002;13.668;2023-09-18T23:42:06;2.53;;;1.60;;
4023;SDS011;2026;51.002;13.668;2023-09-18T23:47:09;3.43;;;1.67;;
4023;SDS011;2026;51.002;13.668;2023-09-18T23:52:14;2.87;;;1.90;;
4023;SDS011;2026;51.002;13.668;2023-09-18T23:57:18;3.13;;;1.80;;
